sensor_id;sensor_type;location;lat;lon;timestamp;temperature;humidity
75442;DHT22;64019;48.312;14.226;2023-07-31T00:02:14;16.90;99.90
75442;DHT22;64019;48.312;14.226;2023-07-31T00:04:40;16.90;99.90
75442;DHT22;64019;48.312;14.226;2023-07-31T00:07:05;16.90;99.90
75442;DHT22;64019;48.312;14.226;2023-07-31T00:09:33;16.90;99.90
75442;DHT22;64019;48.312;14.226;2023-07-31T00:11:59;16.80;99.90
75442;DHT22;64019;48.312;14.226;2023-07-31T00:14:24;16.80;99.90
75442;DHT22;64019;48.312;14.226;2023-07-31T00:16:50;16.80;99.90
75442;DHT22;64019;48.312;14.226;2023-07-31T00:19:16;16.80;99.90
75442;DHT22;64019;48.312;14.226;2023-07-31T00:21:41;16.70;99.90
75442;DHT22;64019;48.312;14.226;2023-07-31T00:24:07;16.80;99.90
75442;DHT22;64019;48.312;14.226;2023-07-31T00:26:33;16.80;99.90
75442;DHT22;64019;48.312;14.226;2023-07-31T00:28:58;16.80;99.90
75442;DHT22;64019;48.312;14.226;2023-07-31T00:31:24;16.70;99.90
75442;DHT22;64019;48.312;14.226;2023-07-31T00:33:50;16.80;99.90
75442;DHT22;64019;48.312;14.226;2023-07-31T00:36:15;16.70;99.90
75442;DHT22;64019;48.312;14.226;2023-07-31T00:38:41;16.70;99.90
75442;DHT22;64019;48.312;14.226;2023-07-31T00:41:06;16.70;99.90
75442;DHT22;64019;48.312;14.226;2023-07-31T00:43:32;16.70;99.90
75442;DHT22;64019;48.312;14.226;2023-07-31T00:45:58;16.70;99.90
75442;DHT22;64019;48.312;14.226;2023-07-31T00:48:23;16.70;99.90
75442;DHT22;64019;48.312;14.226;2023-07-31T00:50:50;16.70;99.90
75442;DHT22;64019;48.312;14.226;2023-07-31T00:53:15;16.70;99.90
75442;DHT22;64019;48.312;14.226;2023-07-31T00:55:42;16.70;99.90
75442;DHT22;64019;48.312;14.226;2023-07-31T00:58:08;16.70;99.90
75442;DHT22;64019;48.312;14.226;2023-07-31T01:00:33;16.70;99.90
75442;DHT22;64019;48.312;14.226;2023-07-31T01:02:59;16.70;99.90
75442;DHT22;64019;48.312;14.226;2023-07-31T01:09:27;16.60;99.90
75442;DHT22;64019;48.312;14.226;2023-07-31T01:11:38;16.60;99.90
75442;DHT22;64019;48.312;14.226;2023-07-31T01:14:08;16.60;99.90
75442;DHT22;64019;48.312;14.226;2023-07-31T01:16:34;16.60;99.90
75442;DHT22;64019;48.312;14.226;2023-07-31T01:18:59;16.60;99.90
75442;DHT22;64019;48.312;14.226;2023-07-31T01:21:41;16.60;99.90
75442;DHT22;64019;48.312;14.226;2023-07-31T01:24:20;16.60;99.90
75442;DHT22;64019;48.312;14.226;2023-07-31T01:26:58;16.60;99.90
75442;DHT22;64019;48.312;14.226;2023-07-31T01:29:42;16.60;99.90
75442;DHT22;64019;48.312;14.226;2023-07-31T01:32:09;16.50;99.90
75442;DHT22;64019;48.312;14.226;2023-07-31T01:34:36;16.50;99.90
75442;DHT22;64019;48.312;14.226;2023-07-31T01:37:02;16.50;99.90
75442;DHT22;64019;48.312;14.226;2023-07-31T01:39:28;16.40;99.90
75442;DHT22;64019;48.312;14.226;2023-07-31T01:41:54;16.40;99.90
75442;DHT22;64019;48.312;14.226;2023-07-31T01:44:20;16.40;99.90
75442;DHT22;64019;48.312;14.226;2023-07-31T01:46:45;16.30;99.90
75442;DHT22;64019;48.312;14.226;2023-07-31T01:49:11;16.30;99.90
75442;DHT22;64019;48.312;14.226;2023-07-31T01:51:37;16.20;99.90
75442;DHT22;64019;48.312;14.226;2023-07-31T01:54:03;16.20;99.90
75442;DHT22;64019;48.312;14.226;2023-07-31T01:56:28;16.10;99.90
75442;DHT22;64019;48.312;14.226;2023-07-31T01:58:54;16.00;99.90
75442;DHT22;64019;48.312;14.226;2023-07-31T02:01:20;16.00;99.90
75442;DHT22;64019;48.312;14.226;2023-07-31T02:03:46;15.90;99.90
75442;DHT22;64019;48.312;14.226;2023-07-31T02:06:11;15.80;99.90
75442;DHT22;64019;48.312;14.226;2023-07-31T02:08:37;15.80;99.90
75442;DHT22;64019;48.312;14.226;2023-07-31T02:11:03;15.80;99.90
75442;DHT22;64019;48.312;14.226;2023-07-31T02:13:29;15.70;99.90
75442;DHT22;64019;48.312;14.226;2023-07-31T02:15:54;15.60;99.90
75442;DHT22;64019;48.312;14.226;2023-07-31T02:18:20;15.60;99.90
75442;DHT22;64019;48.312;14.226;2023-07-31T02:20:51;15.50;99.90
75442;DHT22;64019;48.312;14.226;2023-07-31T02:23:18;15.50;99.90
75442;DHT22;64019;48.312;14.226;2023-07-31T02:25:44;15.40;99.90
75442;DHT22;64019;48.312;14.226;2023-07-31T02:28:10;15.40;99.90
75442;DHT22;64019;48.312;14.226;2023-07-31T02:30:35;15.40;99.90
75442;DHT22;64019;48.312;14.226;2023-07-31T02:33:01;15.40;99.90
75442;DHT22;64019;48.312;14.226;2023-07-31T02:35:27;15.30;99.90
75442;DHT22;64019;48.312;14.226;2023-07-31T02:37:52;15.30;99.90
75442;DHT22;64019;48.312;14.226;2023-07-31T02:40:18;15.20;99.90
75442;DHT22;64019;48.312;14.226;2023-07-31T02:42:44;15.20;99.90
75442;DHT22;64019;48.312;14.226;2023-07-31T02:45:10;15.20;99.90
75442;DHT22;64019;48.312;14.226;2023-07-31T02:47:35;15.20;99.90
75442;DHT22;64019;48.312;14.226;2023-07-31T02:50:02;15.10;99.90
75442;DHT22;64019;48.312;14.226;2023-07-31T02:52:28;15.00;99.90
75442;DHT22;64019;48.312;14.226;2023-07-31T02:54:54;15.00;99.90
75442;DHT22;64019;48.312;14.226;2023-07-31T02:57:20;14.90;99.90
75442;DHT22;64019;48.312;14.226;2023-07-31T02:59:46;15.00;99.90
75442;DHT22;64019;48.312;14.226;2023-07-31T03:02:11;15.00;99.90
75442;DHT22;64019;48.312;14.226;2023-07-31T03:04:38;14.90;99.90
75442;DHT22;64019;48.312;14.226;2023-07-31T03:07:04;14.90;99.90
75442;DHT22;64019;48.312;14.226;2023-07-31T03:09:30;14.80;99.90
75442;DHT22;64019;48.312;14.226;2023-07-31T03:11:56;14.80;99.90
75442;DHT22;64019;48.312;14.226;2023-07-31T03:14:22;14.80;99.90
75442;DHT22;64019;48.312;14.226;2023-07-31T03:16:48;14.80;99.90
75442;DHT22;64019;48.312;14.226;2023-07-31T03:19:14;14.80;99.90
75442;DHT22;64019;48.312;14.226;2023-07-31T03:25:37;14.80;99.90
75442;DHT22;64019;48.312;14.226;2023-07-31T03:45:34;14.60;99.90
75442;DHT22;64019;48.312;14.226;2023-07-31T03:48:00;14.60;99.90
75442;DHT22;64019;48.312;14.226;2023-07-31T03:50:25;14.70;99.90
75442;DHT22;64019;48.312;14.226;2023-07-31T03:52:51;14.60;99.90
75442;DHT22;64019;48.312;14.226;2023-07-31T03:55:17;14.70;99.90
75442;DHT22;64019;48.312;14.226;2023-07-31T03:57:43;14.70;99.90
75442;DHT22;64019;48.312;14.226;2023-07-31T04:00:09;14.70;99.90
75442;DHT22;64019;48.312;14.226;2023-07-31T04:02:35;14.70;99.90
75442;DHT22;64019;48.312;14.226;2023-07-31T04:05:01;14.80;99.90
75442;DHT22;64019;48.312;14.226;2023-07-31T04:07:26;14.80;99.90
75442;DHT22;64019;48.312;14.226;2023-07-31T04:09:52;14.80;99.90
75442;DHT22;64019;48.312;14.226;2023-07-31T04:12:18;14.90;99.90
75442;DHT22;64019;48.312;14.226;2023-07-31T04:14:43;14.90;99.90
75442;DHT22;64019;48.312;14.226;2023-07-31T04:17:09;14.90;99.90
75442;DHT22;64019;48.312;14.226;2023-07-31T04:19:34;15.00;99.90
75442;DHT22;64019;48.312;14.226;2023-07-31T04:22:00;14.90;99.90
75442;DHT22;64019;48.312;14.226;2023-07-31T04:24:26;14.90;99.90
75442;DHT22;64019;48.312;14.226;2023-07-31T04:26:52;14.90;99.90
75442;DHT22;64019;48.312;14.226;2023-07-31T04:29:18;14.80;99.90
75442;DHT22;64019;48.312;14.226;2023-07-31T04:31:43;14.80;99.90
75442;DHT22;64019;48.312;14.226;2023-07-31T04:34:09;14.80;99.90
75442;DHT22;64019;48.312;14.226;2023-07-31T04:36:35;14.90;99.90
75442;DHT22;64019;48.312;14.226;2023-07-31T04:39:01;14.90;99.90
75442;DHT22;64019;48.312;14.226;2023-07-31T04:41:26;14.90;99.90
75442;DHT22;64019;48.312;14.226;2023-07-31T04:43:52;14.90;99.90
75442;DHT22;64019;48.312;14.226;2023-07-31T04:46:18;14.90;99.90
75442;DHT22;64019;48.312;14.226;2023-07-31T04:48:43;14.80;99.90
75442;DHT22;64019;48.312;14.226;2023-07-31T04:51:09;14.80;99.90
75442;DHT22;64019;48.312;14.226;2023-07-31T04:53:36;14.80;99.90
75442;DHT22;64019;48.312;14.226;2023-07-31T04:56:02;14.80;99.90
75442;DHT22;64019;48.312;14.226;2023-07-31T04:58:27;14.80;99.90
75442;DHT22;64019;48.312;14.226;2023-07-31T05:00:53;14.80;99.90
75442;DHT22;64019;48.312;14.226;2023-07-31T05:03:18;14.80;99.90
75442;DHT22;64019;48.312;14.226;2023-07-31T05:05:44;14.90;99.90
75442;DHT22;64019;48.312;14.226;2023-07-31T05:14:55;15.10;99.90
75442;DHT22;64019;48.312;14.226;2023-07-31T05:17:21;15.20;99.90
75442;DHT22;64019;48.312;14.226;2023-07-31T05:40:17;16.20;99.90
75442;DHT22;64019;48.312;14.226;2023-07-31T05:42:42;16.30;99.90
75442;DHT22;64019;48.312;14.226;2023-07-31T05:45:08;16.30;99.90
75442;DHT22;64019;48.312;14.226;2023-07-31T05:47:34;16.40;99.90
75442;DHT22;64019;48.312;14.226;2023-07-31T05:50:00;16.40;99.90
75442;DHT22;64019;48.312;14.226;2023-07-31T05:52:26;16.50;99.90
75442;DHT22;64019;48.312;14.226;2023-07-31T05:54:52;16.60;99.90
75442;DHT22;64019;48.312;14.226;2023-07-31T05:57:18;16.70;99.90
75442;DHT22;64019;48.312;14.226;2023-07-31T05:59:43;16.70;99.90
75442;DHT22;64019;48.312;14.226;2023-07-31T06:02:09;16.90;99.90
75442;DHT22;64019;48.312;14.226;2023-07-31T06:04:34;17.00;99.90
75442;DHT22;64019;48.312;14.226;2023-07-31T06:07:00;17.20;99.90
75442;DHT22;64019;48.312;14.226;2023-07-31T06:09:26;17.30;99.90
75442;DHT22;64019;48.312;14.226;2023-07-31T06:11:52;17.40;99.90
75442;DHT22;64019;48.312;14.226;2023-07-31T06:14:18;17.50;99.90
75442;DHT22;64019;48.312;14.226;2023-07-31T06:16:44;17.50;99.90
75442;DHT22;64019;48.312;14.226;2023-07-31T06:19:10;17.60;99.90
75442;DHT22;64019;48.312;14.226;2023-07-31T06:21:36;17.60;99.90
75442;DHT22;64019;48.312;14.226;2023-07-31T06:24:05;17.70;99.90
75442;DHT22;64019;48.312;14.226;2023-07-31T06:26:31;17.80;99.90
75442;DHT22;64019;48.312;14.226;2023-07-31T06:28:57;17.90;99.90
75442;DHT22;64019;48.312;14.226;2023-07-31T06:31:22;18.00;99.90
75442;DHT22;64019;48.312;14.226;2023-07-31T06:33:52;18.10;99.90
75442;DHT22;64019;48.312;14.226;2023-07-31T06:46:48;18.60;99.90
75442;DHT22;64019;48.312;14.226;2023-07-31T06:49:14;18.60;99.90
75442;DHT22;64019;48.312;14.226;2023-07-31T06:51:42;18.60;99.90
75442;DHT22;64019;48.312;14.226;2023-07-31T06:54:09;18.60;99.90
75442;DHT22;64019;48.312;14.226;2023-07-31T06:56:35;18.70;99.90
75442;DHT22;64019;48.312;14.226;2023-07-31T06:59:00;18.80;99.90
75442;DHT22;64019;48.312;14.226;2023-07-31T07:01:26;18.80;99.90
75442;DHT22;64019;48.312;14.226;2023-07-31T07:03:53;18.80;99.90
75442;DHT22;64019;48.312;14.226;2023-07-31T07:06:19;19.10;99.90
75442;DHT22;64019;48.312;14.226;2023-07-31T07:08:44;19.30;99.90
75442;DHT22;64019;48.312;14.226;2023-07-31T07:11:10;19.60;99.90
75442;DHT22;64019;48.312;14.226;2023-07-31T07:13:36;19.80;99.90
75442;DHT22;64019;48.312;14.226;2023-07-31T07:16:01;20.00;99.90
75442;DHT22;64019;48.312;14.226;2023-07-31T07:18:27;20.20;99.90
75442;DHT22;64019;48.312;14.226;2023-07-31T07:20:54;20.40;99.90
75442;DHT22;64019;48.312;14.226;2023-07-31T07:23:20;20.50;99.90
75442;DHT22;64019;48.312;14.226;2023-07-31T07:25:47;20.60;99.90
75442;DHT22;64019;48.312;14.226;2023-07-31T07:28:13;20.60;99.90
75442;DHT22;64019;48.312;14.226;2023-07-31T07:30:39;20.50;99.90
75442;DHT22;64019;48.312;14.226;2023-07-31T07:33:05;20.50;99.90
75442;DHT22;64019;48.312;14.226;2023-07-31T07:35:33;20.60;99.90
75442;DHT22;64019;48.312;14.226;2023-07-31T07:38:00;20.80;99.90
75442;DHT22;64019;48.312;14.226;2023-07-31T07:40:26;20.90;99.90
75442;DHT22;64019;48.312;14.226;2023-07-31T07:42:51;21.10;99.90
75442;DHT22;64019;48.312;14.226;2023-07-31T07:45:17;21.30;99.90
75442;DHT22;64019;48.312;14.226;2023-07-31T07:47:43;21.30;99.90
75442;DHT22;64019;48.312;14.226;2023-07-31T07:50:09;21.20;99.90
75442;DHT22;64019;48.312;14.226;2023-07-31T07:52:34;21.20;99.90
75442;DHT22;64019;48.312;14.226;2023-07-31T07:55:00;21.30;99.90
75442;DHT22;64019;48.312;14.226;2023-07-31T07:57:26;21.10;99.90
75442;DHT22;64019;48.312;14.226;2023-07-31T07:59:52;21.00;99.90
75442;DHT22;64019;48.312;14.226;2023-07-31T08:02:18;20.90;99.90
75442;DHT22;64019;48.312;14.226;2023-07-31T08:04:43;20.90;99.90
75442;DHT22;64019;48.312;14.226;2023-07-31T08:07:12;20.90;99.90
75442;DHT22;64019;48.312;14.226;2023-07-31T08:09:38;20.80;99.90
75442;DHT22;64019;48.312;14.226;2023-07-31T08:12:05;20.80;99.90
75442;DHT22;64019;48.312;14.226;2023-07-31T08:14:30;20.70;99.90
75442;DHT22;64019;48.312;14.226;2023-07-31T08:16:56;20.70;99.90
75442;DHT22;64019;48.312;14.226;2023-07-31T08:19:22;20.90;99.90
75442;DHT22;64019;48.312;14.226;2023-07-31T08:21:48;21.00;99.90
75442;DHT22;64019;48.312;14.226;2023-07-31T08:24:13;21.10;99.90
75442;DHT22;64019;48.312;14.226;2023-07-31T08:26:39;21.30;99.90
75442;DHT22;64019;48.312;14.226;2023-07-31T08:29:04;21.40;99.90
75442;DHT22;64019;48.312;14.226;2023-07-31T08:31:30;21.50;99.90
75442;DHT22;64019;48.312;14.226;2023-07-31T08:33:56;21.60;99.90
75442;DHT22;64019;48.312;14.226;2023-07-31T08:36:22;21.60;99.90
75442;DHT22;64019;48.312;14.226;2023-07-31T08:38:47;21.60;99.90
75442;DHT22;64019;48.312;14.226;2023-07-31T08:41:13;21.70;99.90
75442;DHT22;64019;48.312;14.226;2023-07-31T08:43:39;21.70;99.90
75442;DHT22;64019;48.312;14.226;2023-07-31T08:46:05;21.80;99.90
75442;DHT22;64019;48.312;14.226;2023-07-31T08:48:32;21.70;99.90
75442;DHT22;64019;48.312;14.226;2023-07-31T08:50:58;21.70;99.90
75442;DHT22;64019;48.312;14.226;2023-07-31T08:53:24;21.80;99.90
75442;DHT22;64019;48.312;14.226;2023-07-31T08:55:52;21.80;99.90
75442;DHT22;64019;48.312;14.226;2023-07-31T08:58:19;21.70;99.90
75442;DHT22;64019;48.312;14.226;2023-07-31T09:00:46;21.70;99.90
75442;DHT22;64019;48.312;14.226;2023-07-31T09:03:18;21.80;99.90
75442;DHT22;64019;48.312;14.226;2023-07-31T09:05:45;21.60;99.90
75442;DHT22;64019;48.312;14.226;2023-07-31T09:08:12;21.70;99.90
75442;DHT22;64019;48.312;14.226;2023-07-31T09:10:42;21.70;99.90
75442;DHT22;64019;48.312;14.226;2023-07-31T09:13:09;21.70;99.90
75442;DHT22;64019;48.312;14.226;2023-07-31T09:15:36;21.60;99.90
75442;DHT22;64019;48.312;14.226;2023-07-31T09:18:03;21.60;99.90
75442;DHT22;64019;48.312;14.226;2023-07-31T09:20:29;21.70;99.90
75442;DHT22;64019;48.312;14.226;2023-07-31T09:22:55;21.70;99.90
75442;DHT22;64019;48.312;14.226;2023-07-31T09:27:56;22.00;99.90
75442;DHT22;64019;48.312;14.226;2023-07-31T09:30:22;22.20;99.90
75442;DHT22;64019;48.312;14.226;2023-07-31T09:32:50;22.20;99.90
75442;DHT22;64019;48.312;14.226;2023-07-31T09:35:27;22.00;99.90
75442;DHT22;64019;48.312;14.226;2023-07-31T09:37:54;22.20;99.90
75442;DHT22;64019;48.312;14.226;2023-07-31T09:40:33;22.30;99.90
75442;DHT22;64019;48.312;14.226;2023-07-31T09:43:05;22.20;99.90
75442;DHT22;64019;48.312;14.226;2023-07-31T09:45:35;22.30;99.90
75442;DHT22;64019;48.312;14.226;2023-07-31T09:48:07;22.30;99.90
75442;DHT22;64019;48.312;14.226;2023-07-31T09:50:40;22.30;99.90
75442;DHT22;64019;48.312;14.226;2023-07-31T09:53:07;22.40;99.90
75442;DHT22;64019;48.312;14.226;2023-07-31T09:55:34;22.40;99.90
75442;DHT22;64019;48.312;14.226;2023-07-31T09:58:03;22.40;99.90
75442;DHT22;64019;48.312;14.226;2023-07-31T10:00:30;22.40;99.90
75442;DHT22;64019;48.312;14.226;2023-07-31T10:02:58;22.40;99.90
75442;DHT22;64019;48.312;14.226;2023-07-31T10:05:31;22.50;99.90
75442;DHT22;64019;48.312;14.226;2023-07-31T10:07:59;22.50;99.90
75442;DHT22;64019;48.312;14.226;2023-07-31T10:10:25;22.50;99.90
75442;DHT22;64019;48.312;14.226;2023-07-31T10:12:54;22.60;99.90
75442;DHT22;64019;48.312;14.226;2023-07-31T10:15:20;22.60;99.90
75442;DHT22;64019;48.312;14.226;2023-07-31T10:17:49;22.60;99.90
75442;DHT22;64019;48.312;14.226;2023-07-31T10:20:16;22.70;99.90
75442;DHT22;64019;48.312;14.226;2023-07-31T10:22:42;22.80;99.90
75442;DHT22;64019;48.312;14.226;2023-07-31T10:25:09;22.90;99.90
75442;DHT22;64019;48.312;14.226;2023-07-31T10:27:41;23.00;99.90
75442;DHT22;64019;48.312;14.226;2023-07-31T10:30:09;23.30;99.90
75442;DHT22;64019;48.312;14.226;2023-07-31T10:32:38;23.50;99.90
75442;DHT22;64019;48.312;14.226;2023-07-31T10:35:08;23.50;99.90
75442;DHT22;64019;48.312;14.226;2023-07-31T10:37:38;23.50;99.90
75442;DHT22;64019;48.312;14.226;2023-07-31T10:40:12;23.40;99.90
75442;DHT22;64019;48.312;14.226;2023-07-31T10:48:01;23.80;99.90
75442;DHT22;64019;48.312;14.226;2023-07-31T10:50:28;23.70;99.90
75442;DHT22;64019;48.312;14.226;2023-07-31T10:52:55;23.60;99.90
75442;DHT22;64019;48.312;14.226;2023-07-31T10:55:31;23.50;99.90
75442;DHT22;64019;48.312;14.226;2023-07-31T10:58:05;23.60;99.90
75442;DHT22;64019;48.312;14.226;2023-07-31T11:00:31;23.70;99.90
75442;DHT22;64019;48.312;14.226;2023-07-31T11:03:01;23.70;99.90
75442;DHT22;64019;48.312;14.226;2023-07-31T11:05:49;23.70;99.90
75442;DHT22;64019;48.312;14.226;2023-07-31T11:13:30;24.00;99.90
75442;DHT22;64019;48.312;14.226;2023-07-31T11:15:56;24.10;99.90
75442;DHT22;64019;48.312;14.226;2023-07-31T11:18:22;24.20;99.90
75442;DHT22;64019;48.312;14.226;2023-07-31T11:20:47;24.20;99.90
75442;DHT22;64019;48.312;14.226;2023-07-31T11:23:16;24.30;99.90
75442;DHT22;64019;48.312;14.226;2023-07-31T11:25:42;24.20;99.90
75442;DHT22;64019;48.312;14.226;2023-07-31T11:28:13;24.20;99.90
75442;DHT22;64019;48.312;14.226;2023-07-31T11:30:40;24.00;99.90
75442;DHT22;64019;48.312;14.226;2023-07-31T11:33:07;24.00;99.90
75442;DHT22;64019;48.312;14.226;2023-07-31T11:35:34;24.10;99.90
75442;DHT22;64019;48.312;14.226;2023-07-31T11:38:01;24.40;99.90
75442;DHT22;64019;48.312;14.226;2023-07-31T11:40:27;24.60;99.90
75442;DHT22;64019;48.312;14.226;2023-07-31T11:43:03;24.60;99.90
75442;DHT22;64019;48.312;14.226;2023-07-31T11:45:30;24.60;99.90
75442;DHT22;64019;48.312;14.226;2023-07-31T11:47:56;24.60;99.90
75442;DHT22;64019;48.312;14.226;2023-07-31T12:04:06;23.90;99.90
75442;DHT22;64019;48.312;14.226;2023-07-31T12:06:36;23.80;99.90
75442;DHT22;64019;48.312;14.226;2023-07-31T12:09:05;23.80;99.90
75442;DHT22;64019;48.312;14.226;2023-07-31T12:11:31;23.80;99.90
75442;DHT22;64019;48.312;14.226;2023-07-31T12:13:57;23.80;99.90
75442;DHT22;64019;48.312;14.226;2023-07-31T12:16:26;23.90;99.90
75442;DHT22;64019;48.312;14.226;2023-07-31T12:18:52;24.20;99.90
75442;DHT22;64019;48.312;14.226;2023-07-31T12:21:19;24.50;99.90
75442;DHT22;64019;48.312;14.226;2023-07-31T12:23:45;24.40;99.90
75442;DHT22;64019;48.312;14.226;2023-07-31T12:26:17;24.60;99.90
75442;DHT22;64019;48.312;14.226;2023-07-31T12:28:47;24.50;99.90
75442;DHT22;64019;48.312;14.226;2023-07-31T12:31:15;24.50;99.90
75442;DHT22;64019;48.312;14.226;2023-07-31T12:33:42;24.30;99.90
75442;DHT22;64019;48.312;14.226;2023-07-31T12:36:11;24.20;99.90
75442;DHT22;64019;48.312;14.226;2023-07-31T12:45:25;24.30;99.90
75442;DHT22;64019;48.312;14.226;2023-07-31T12:47:51;24.40;99.90
75442;DHT22;64019;48.312;14.226;2023-07-31T12:50:17;24.50;99.90
75442;DHT22;64019;48.312;14.226;2023-07-31T12:52:42;24.60;99.90
75442;DHT22;64019;48.312;14.226;2023-07-31T12:55:08;24.60;99.90
75442;DHT22;64019;48.312;14.226;2023-07-31T12:57:34;24.70;99.90
75442;DHT22;64019;48.312;14.226;2023-07-31T12:59:59;24.70;99.90
75442;DHT22;64019;48.312;14.226;2023-07-31T13:02:25;24.70;99.90
75442;DHT22;64019;48.312;14.226;2023-07-31T13:04:51;24.80;99.90
75442;DHT22;64019;48.312;14.226;2023-07-31T13:07:16;24.80;99.90
75442;DHT22;64019;48.312;14.226;2023-07-31T13:09:42;24.90;99.90
75442;DHT22;64019;48.312;14.226;2023-07-31T13:12:08;24.80;99.90
75442;DHT22;64019;48.312;14.226;2023-07-31T13:14:34;24.80;99.90
75442;DHT22;64019;48.312;14.226;2023-07-31T13:16:59;24.70;99.90
75442;DHT22;64019;48.312;14.226;2023-07-31T13:19:25;24.70;99.90
75442;DHT22;64019;48.312;14.226;2023-07-31T13:21:50;24.60;99.90
75442;DHT22;64019;48.312;14.226;2023-07-31T13:24:16;24.60;99.90
75442;DHT22;64019;48.312;14.226;2023-07-31T13:26:42;24.60;99.90
75442;DHT22;64019;48.312;14.226;2023-07-31T13:29:07;24.60;99.90
75442;DHT22;64019;48.312;14.226;2023-07-31T13:31:33;24.50;99.90
75442;DHT22;64019;48.312;14.226;2023-07-31T13:33:58;24.40;99.90
75442;DHT22;64019;48.312;14.226;2023-07-31T13:36:24;24.30;99.90
75442;DHT22;64019;48.312;14.226;2023-07-31T13:38:50;24.30;99.90
75442;DHT22;64019;48.312;14.226;2023-07-31T13:41:15;24.20;99.90
75442;DHT22;64019;48.312;14.226;2023-07-31T13:43:41;24.20;99.90
75442;DHT22;64019;48.312;14.226;2023-07-31T13:46:07;24.20;99.90
75442;DHT22;64019;48.312;14.226;2023-07-31T13:48:36;24.30;99.90
75442;DHT22;64019;48.312;14.226;2023-07-31T13:51:02;24.30;99.90
75442;DHT22;64019;48.312;14.226;2023-07-31T13:53:28;24.40;99.90
75442;DHT22;64019;48.312;14.226;2023-07-31T13:55:53;24.50;99.90
75442;DHT22;64019;48.312;14.226;2023-07-31T13:58:21;24.50;99.90
75442;DHT22;64019;48.312;14.226;2023-07-31T14:00:46;24.60;99.90
75442;DHT22;64019;48.312;14.226;2023-07-31T14:03:12;24.60;99.90
75442;DHT22;64019;48.312;14.226;2023-07-31T14:05:37;24.60;99.90
75442;DHT22;64019;48.312;14.226;2023-07-31T14:08:03;24.80;99.90
75442;DHT22;64019;48.312;14.226;2023-07-31T14:10:29;24.70;99.90
75442;DHT22;64019;48.312;14.226;2023-07-31T14:12:55;24.70;99.90
75442;DHT22;64019;48.312;14.226;2023-07-31T14:15:20;24.70;99.90
75442;DHT22;64019;48.312;14.226;2023-07-31T14:17:46;24.70;99.90
75442;DHT22;64019;48.312;14.226;2023-07-31T14:20:12;24.70;99.90
75442;DHT22;64019;48.312;14.226;2023-07-31T14:22:38;24.60;99.90
75442;DHT22;64019;48.312;14.226;2023-07-31T14:25:04;24.60;99.90
75442;DHT22;64019;48.312;14.226;2023-07-31T14:27:30;24.70;99.90
75442;DHT22;64019;48.312;14.226;2023-07-31T14:29:55;24.70;99.90
75442;DHT22;64019;48.312;14.226;2023-07-31T14:32:24;24.70;99.90
75442;DHT22;64019;48.312;14.226;2023-07-31T14:34:51;24.80;99.90
75442;DHT22;64019;48.312;14.226;2023-07-31T14:37:17;24.90;99.90
75442;DHT22;64019;48.312;14.226;2023-07-31T14:39:42;25.00;99.90
75442;DHT22;64019;48.312;14.226;2023-07-31T14:42:09;24.90;99.90
75442;DHT22;64019;48.312;14.226;2023-07-31T14:44:34;24.90;99.90
75442;DHT22;64019;48.312;14.226;2023-07-31T14:47:00;24.80;99.90
75442;DHT22;64019;48.312;14.226;2023-07-31T14:49:26;24.80;99.90
75442;DHT22;64019;48.312;14.226;2023-07-31T14:51:54;24.80;99.90
75442;DHT22;64019;48.312;14.226;2023-07-31T14:54:19;24.80;99.90
75442;DHT22;64019;48.312;14.226;2023-07-31T14:56:45;24.80;99.90
75442;DHT22;64019;48.312;14.226;2023-07-31T14:59:11;24.90;99.90
75442;DHT22;64019;48.312;14.226;2023-07-31T15:01:37;24.90;99.90
75442;DHT22;64019;48.312;14.226;2023-07-31T15:10:49;25.00;99.90
75442;DHT22;64019;48.312;14.226;2023-07-31T15:13:14;25.00;99.90
75442;DHT22;64019;48.312;14.226;2023-07-31T15:15:40;24.90;99.90
75442;DHT22;64019;48.312;14.226;2023-07-31T15:35:11;25.10;99.90
75442;DHT22;64019;48.312;14.226;2023-07-31T15:37:37;25.20;99.90
75442;DHT22;64019;48.312;14.226;2023-07-31T15:40:03;25.20;99.90
75442;DHT22;64019;48.312;14.226;2023-07-31T15:42:29;25.20;99.90
75442;DHT22;64019;48.312;14.226;2023-07-31T15:44:55;25.20;99.90
75442;DHT22;64019;48.312;14.226;2023-07-31T15:47:21;25.20;99.90
75442;DHT22;64019;48.312;14.226;2023-07-31T15:49:47;25.20;99.90
75442;DHT22;64019;48.312;14.226;2023-07-31T15:52:12;25.20;99.90
75442;DHT22;64019;48.312;14.226;2023-07-31T15:54:38;25.20;99.90
75442;DHT22;64019;48.312;14.226;2023-07-31T15:57:04;25.20;99.90
75442;DHT22;64019;48.312;14.226;2023-07-31T15:59:29;25.10;99.90
75442;DHT22;64019;48.312;14.226;2023-07-31T16:01:55;25.00;99.90
75442;DHT22;64019;48.312;14.226;2023-07-31T16:04:21;24.90;99.90
75442;DHT22;64019;48.312;14.226;2023-07-31T16:06:46;24.90;99.90
75442;DHT22;64019;48.312;14.226;2023-07-31T16:09:12;25.00;99.90
75442;DHT22;64019;48.312;14.226;2023-07-31T16:11:37;25.00;99.90
75442;DHT22;64019;48.312;14.226;2023-07-31T16:14:03;25.00;99.90
75442;DHT22;64019;48.312;14.226;2023-07-31T16:16:29;25.00;99.90
75442;DHT22;64019;48.312;14.226;2023-07-31T16:18:54;24.90;99.90
75442;DHT22;64019;48.312;14.226;2023-07-31T16:21:20;24.90;99.90
75442;DHT22;64019;48.312;14.226;2023-07-31T16:34:02;24.80;99.90
75442;DHT22;64019;48.312;14.226;2023-07-31T16:36:41;24.80;99.90
75442;DHT22;64019;48.312;14.226;2023-07-31T16:39:08;24.80;99.90
75442;DHT22;64019;48.312;14.226;2023-07-31T16:41:38;24.80;99.90
75442;DHT22;64019;48.312;14.226;2023-07-31T16:44:13;24.70;99.90
75442;DHT22;64019;48.312;14.226;2023-07-31T16:46:41;24.70;99.90
75442;DHT22;64019;48.312;14.226;2023-07-31T16:52:33;24.60;99.90
75442;DHT22;64019;48.312;14.226;2023-07-31T16:55:07;24.60;99.90
75442;DHT22;64019;48.312;14.226;2023-07-31T16:57:33;24.60;99.90
75442;DHT22;64019;48.312;14.226;2023-07-31T16:59:58;24.50;99.90
75442;DHT22;64019;48.312;14.226;2023-07-31T17:02:24;24.50;99.90
75442;DHT22;64019;48.312;14.226;2023-07-31T17:04:50;24.50;99.90
75442;DHT22;64019;48.312;14.226;2023-07-31T17:07:15;24.40;99.90
75442;DHT22;64019;48.312;14.226;2023-07-31T17:09:41;24.50;99.90
75442;DHT22;64019;48.312;14.226;2023-07-31T17:12:07;24.50;99.90
75442;DHT22;64019;48.312;14.226;2023-07-31T17:14:33;24.50;99.90
75442;DHT22;64019;48.312;14.226;2023-07-31T17:16:58;24.50;99.90
75442;DHT22;64019;48.312;14.226;2023-07-31T17:19:24;24.50;99.90
75442;DHT22;64019;48.312;14.226;2023-07-31T17:21:50;24.50;99.90
75442;DHT22;64019;48.312;14.226;2023-07-31T17:24:15;24.50;99.90
75442;DHT22;64019;48.312;14.226;2023-07-31T17:26:41;24.40;99.90